Time;durP1;ratioP1;P1;durP2;ratioP2;P2;SDS_P1;SDS_P2;PMS_P1;PMS_P2;Temp;Humidity;BMP_temperature;BMP_pressure;BME280_temperature;BME280_humidity;BME280_pressure;Samples;Min_cycle;Max_cycle;Signal;HPM_P1;HPM_P2
2021/12/29 00:00:42;;;;;;;52.65;16.23;;;6.80;99.90;;;;;;5110552;27;20034;-87
2021/12/29 00:03:26;;;;;;;59.90;17.10;;;7.20;99.90;;;;;;5139741;27;20496;-87
2021/12/29 00:06:10;;;;;;;53.95;14.63;;;6.60;99.90;;;;;;5155448;27;20542;-87
2021/12/29 00:08:55;;;;;;;70.38;17.05;;;6.60;99.90;;;;;;5139380;27;20038;-87
2021/12/29 00:11:41;;;;;;;51.22;14.02;;;6.80;99.90;;;;;;5107668;27;20456;-88
2021/12/29 00:14:25;;;;;;;50.15;14.55;;;6.90;99.90;;;;;;5134420;27;20045;-87
2021/12/29 00:17:09;;;;;;;46.97;13.35;;;6.60;99.90;;;;;;5134477;27;20046;-88
2021/12/29 00:19:53;;;;;;;;;;;6.50;99.90;;;;;;5135109;27;20050;-87
2021/12/29 00:22:38;;;;;;;51.30;13.48;;;6.70;99.90;;;;;;5139070;27;20014;-88
2021/12/29 00:25:22;;;;;;;45.97;13.38;;;6.50;99.90;;;;;;5139288;27;20038;-87
2021/12/29 00:28:07;;;;;;;52.30;13.45;;;6.50;99.90;;;;;;5139212;27;20397;-87
2021/12/29 00:30:51;;;;;;;48.78;13.40;;;6.90;99.90;;;;;;5124411;27;20398;-87
2021/12/29 00:33:36;;;;;;;56.55;13.88;;;6.50;99.90;;;;;;5139236;27;20057;-87
2021/12/29 00:36:20;;;;;;;54.65;12.75;;;6.80;99.90;;;;;;5124680;27;20042;-87
2021/12/29 00:39:05;;;;;;;46.38;11.80;;;6.50;99.90;;;;;;5154638;27;20417;-87
2021/12/29 00:41:49;;;;;;;33.65;10.73;;;6.50;99.90;;;;;;5152527;27;20053;-88
2021/12/29 00:44:34;;;;;;;22.40;8.98;;;6.50;99.90;;;;;;5124436;27;20073;-87
2021/12/29 00:47:18;;;;;;;31.42;9.57;;;6.80;99.90;;;;;;5154353;27;20103;-87
2021/12/29 00:50:06;;;;;;;35.50;10.38;;;6.50;99.90;;;;;;5153850;27;20061;-87
2021/12/29 00:52:51;;;;;;;38.22;10.55;;;6.50;99.90;;;;;;5154215;27;20150;-87
2021/12/29 00:55:35;;;;;;;;;;;6.50;99.90;;;;;;5139368;27;20497;-87
2021/12/29 00:58:19;;;;;;;38.67;10.60;;;6.50;99.90;;;;;;5138838;27;20006;-87
2021/12/29 01:01:04;;;;;;;;;;;6.90;99.90;;;;;;5138674;27;20612;-86
2021/12/29 01:03:48;;;;;;;43.70;9.85;;;6.90;99.90;;;;;;5153984;27;20059;-87
2021/12/29 01:06:32;;;;;;;41.05;12.05;;;6.90;99.90;;;;;;5138481;27;20547;-88
2021/12/29 01:09:16;;;;;;;54.88;12.93;;;6.80;99.90;;;;;;5153963;27;20075;-87
2021/12/29 01:12:00;;;;;;;62.92;14.77;;;6.50;99.90;;;;;;5152151;27;20447;-87
2021/12/29 01:14:52;;;;;;;72.70;16.02;;;6.70;99.90;;;;;;5153876;27;20107;-87
2021/12/29 01:17:37;;;;;;;70.22;15.60;;;6.60;99.90;;;;;;5138558;27;20042;-88
2021/12/29 01:20:21;;;;;;;80.50;16.10;;;6.60;99.90;;;;;;5154219;27;20038;-87
2021/12/29 01:23:05;;;;;;;72.18;15.05;;;6.60;99.90;;;;;;5153740;27;20057;-87
2021/12/29 01:25:49;;;;;;;;;;;6.60;99.90;;;;;;5138458;27;20087;-87
2021/12/29 01:28:34;;;;;;;91.88;16.23;;;6.60;99.90;;;;;;5154271;27;20439;-87
2021/12/29 01:31:18;;;;;;;97.95;18.17;;;6.60;99.90;;;;;;5138578;27;20397;-88
2021/12/29 01:34:05;;;;;;;92.90;16.88;;;6.60;99.90;;;;;;5138009;27;20118;-87
2021/12/29 01:36:49;;;;;;;91.75;18.70;;;6.60;99.90;;;;;;5123811;27;20042;-87
2021/12/29 01:39:33;;;;;;;92.80;19.08;;;6.70;99.90;;;;;;5138300;27;20042;-88
2021/12/29 01:42:18;;;;;;;101.38;18.52;;;6.70;99.90;;;;;;5103429;28;20539;-87
2021/12/29 01:45:02;;;;;;;;;;;6.70;99.90;;;;;;5117735;28;20062;-87
2021/12/29 01:47:48;;;;;;;;;;;6.70;99.90;;;;;;5118098;28;19942;-88
2021/12/29 01:50:33;;;;;;;112.53;20.45;;;6.70;99.90;;;;;;5133030;28;20018;-88
2021/12/29 01:53:24;;;;;;;105.40;20.35;;;6.70;99.90;;;;;;5133226;28;20119;-87
2021/12/29 01:56:10;;;;;;;122.70;19.88;;;6.80;99.90;;;;;;5132701;28;20100;-88
2021/12/29 01:58:55;;;;;;;121.25;21.17;;;6.90;99.90;;;;;;5132695;28;20042;-87
2021/12/29 02:01:40;;;;;;;141.80;21.67;;;6.90;99.90;;;;;;5117702;28;20117;-88
2021/12/29 02:04:24;;;;;;;153.50;22.60;;;6.80;99.90;;;;;;5117923;28;20152;-87
2021/12/29 02:07:08;;;;;;;166.45;23.75;;;6.80;99.90;;;;;;5132480;28;20045;-87
2021/12/29 02:09:53;;;;;;;136.38;21.38;;;7.00;99.90;;;;;;5103625;27;20038;-86
2021/12/29 02:12:38;;;;;;;136.15;21.33;;;6.90;99.90;;;;;;5153801;27;20447;-88
2021/12/29 02:15:22;;;;;;;116.50;19.90;;;6.80;99.90;;;;;;5153657;27;20042;-87
2021/12/29 02:18:14;;;;;;;;;;;6.80;99.90;;;;;;5137954;27;20498;-88
2021/12/29 02:20:58;;;;;;;90.35;16.80;;;6.80;99.90;;;;;;5139016;27;19918;-87
2021/12/29 02:23:55;;;;;;;91.45;16.65;;;6.90;99.90;;;;;;5127153;27;20086;-87
2021/12/29 02:26:41;;;;;;;93.95;15.80;;;6.90;99.90;;;;;;5157354;27;20038;-87
2021/12/29 02:29:25;;;;;;;82.15;14.20;;;6.80;99.90;;;;;;5157176;27;20041;-87
2021/12/29 02:32:10;;;;;;;68.15;13.63;;;6.80;99.90;;;;;;5156727;27;20137;-87
2021/12/29 02:34:54;;;;;;;71.10;12.68;;;6.80;99.90;;;;;;5141560;27;20122;-87
2021/12/29 02:37:38;;;;;;;72.72;12.98;;;6.80;99.90;;;;;;5141447;27;20123;-87
2021/12/29 02:40:22;;;;;;;67.80;12.27;;;6.80;99.90;;;;;;5139601;27;20498;-86
2021/12/29 02:43:07;;;;;;;;;;;6.90;99.90;;;;;;5140286;27;20104;-86
2021/12/29 02:45:58;;;;;;;;;;;6.80;99.90;;;;;;5157251;27;19985;-87
2021/12/29 02:48:53;;;;;;;59.47;10.93;;;6.80;99.90;;;;;;5156858;27;19917;-87
2021/12/29 02:51:37;;;;;;;63.13;12.07;;;7.10;99.90;;;;;;5157081;27;20057;-87
2021/12/29 02:54:22;;;;;;;64.88;11.57;;;6.90;99.90;;;;;;5140629;27;20117;-88
2021/12/29 02:57:07;;;;;;;53.42;11.13;;;7.00;99.90;;;;;;5156287;27;20095;-87
2021/12/29 02:59:51;;;;;;;59.15;12.38;;;6.90;99.90;;;;;;5121626;27;20153;-87
2021/12/29 03:02:36;;;;;;;58.08;12.95;;;6.90;99.90;;;;;;5120453;27;20035;-88
2021/12/29 03:05:23;;;;;;;;;;;7.40;99.90;;;;;;5120212;27;20258;-87
2021/12/29 03:08:08;;;;;;;63.00;12.75;;;7.00;99.90;;;;;;5120262;27;20405;-87
2021/12/29 03:10:53;;;;;;;68.35;13.38;;;7.30;99.90;;;;;;5145027;27;20033;-87
2021/12/29 03:13:39;;;;;;;63.55;12.82;;;7.00;99.90;;;;;;5140682;27;20126;-87
2021/12/29 03:16:24;;;;;;;67.22;13.65;;;7.00;99.90;;;;;;5140228;27;20045;-87
2021/12/29 03:19:09;;;;;;;65.38;14.02;;;7.30;99.90;;;;;;5155752;27;20041;-87
2021/12/29 03:21:54;;;;;;;82.32;15.63;;;7.00;99.90;;;;;;5140552;27;20505;-87
2021/12/29 03:24:38;;;;;;;79.22;14.90;;;7.10;99.90;;;;;;5140431;27;20037;-87
2021/12/29 03:27:22;;;;;;;;;;;7.10;99.90;;;;;;5156111;27;20091;-87
2021/12/29 03:30:07;;;;;;;68.68;15.52;;;7.10;99.90;;;;;;5155687;27;19918;-87
2021/12/29 03:33:02;;;;;;;68.32;15.73;;;7.10;99.90;;;;;;5155511;27;20044;-88
2021/12/29 03:35:50;;;;;;;59.00;16.15;;;7.20;99.90;;;;;;5141925;27;20099;-87
2021/12/29 03:38:37;;;;;;;71.40;17.30;;;7.20;99.90;;;;;;5138265;27;20041;-88
2021/12/29 03:41:24;;;;;;;65.32;16.80;;;7.20;99.90;;;;;;5155075;27;20558;-87
2021/12/29 03:44:08;;;;;;;73.53;18.67;;;7.20;99.90;;;;;;5155259;27;20090;-87
2021/12/29 03:46:52;;;;;;;68.82;19.08;;;7.20;99.90;;;;;;5139990;27;20099;-88
2021/12/29 03:49:36;;;;;;;;;;;7.40;99.90;;;;;;5155776;27;20405;-87
2021/12/29 03:52:20;;;;;;;71.75;19.50;;;7.30;99.90;;;;;;5139496;27;19971;-88
2021/12/29 03:55:04;;;;;;;;;;;7.30;99.90;;;;;;5155995;27;20042;-87
2021/12/29 03:57:49;;;;;;;;;;;7.30;99.90;;;;;;5140220;27;19917;-87
2021/12/29 04:00:33;;;;;;;73.38;21.05;;;7.30;99.90;;;;;;5154923;27;19965;-86
2021/12/29 04:03:18;;;;;;;89.50;21.95;;;7.30;99.90;;;;;;5154999;27;20398;-87
2021/12/29 04:06:02;;;;;;;88.20;22.50;;;7.40;99.90;;;;;;5139764;27;20053;-87
2021/12/29 04:08:48;;;;;;;75.07;22.38;;;7.40;99.90;;;;;;5139528;27;20493;-87
2021/12/29 04:11:32;;;;;;;83.50;22.00;;;7.30;99.90;;;;;;5139606;27;20091;-87
2021/12/29 04:14:17;;;;;;;;;;;7.40;99.90;;;;;;5118911;27;20554;-87
2021/12/29 04:17:09;;;;;;;77.13;22.42;;;7.50;99.90;;;;;;5118865;27;20317;-87
2021/12/29 04:22:56;;;;;;;72.50;21.30;;;8.10;99.90;;;;;;5134236;27;20050;-88
2021/12/29 04:25:44;;;;;;;74.32;21.38;;;7.50;99.90;;;;;;5134115;27;20095;-88
2021/12/29 04:28:29;;;;;;;63.58;21.05;;;7.40;99.90;;;;;;5133788;27;20042;-87
2021/12/29 04:31:13;;;;;;;59.65;21.33;;;7.60;99.90;;;;;;5133765;27;20066;-87
2021/12/29 04:33:58;;;;;;;66.95;21.98;;;7.40;99.90;;;;;;5118763;27;20043;-87
2021/12/29 04:36:42;;;;;;;65.15;21.17;;;7.50;99.90;;;;;;5104233;27;20103;-88
2021/12/29 04:39:26;;;;;;;63.85;21.45;;;7.90;99.90;;;;;;5133563;27;20395;-88
2021/12/29 04:42:11;;;;;;;57.80;19.77;;;7.40;99.90;;;;;;5119140;27;20146;-88
2021/12/29 04:44:55;;;;;;;;;;;7.50;99.90;;;;;;5133583;27;20046;-87
2021/12/29 04:47:41;;;;;;;54.65;20.50;;;7.40;99.90;;;;;;5117829;27;19964;-87
2021/12/29 04:53:10;;;;;;;54.75;19.67;;;7.60;99.90;;;;;;5133879;27;20046;-87
2021/12/29 04:55:55;;;;;;;58.78;20.77;;;7.50;99.90;;;;;;5133765;27;20042;-87
2021/12/29 04:58:39;;;;;;;58.15;20.17;;;7.40;99.90;;;;;;5133296;27;20092;-87
2021/12/29 05:01:23;;;;;;;60.08;20.65;;;7.40;99.90;;;;;;5117810;27;20038;-88
2021/12/29 05:04:08;;;;;;;63.92;22.17;;;7.70;99.90;;;;;;5133682;27;20119;-88
2021/12/29 05:09:57;;;;;;;55.58;18.45;;;7.50;99.90;;;;;;5102185;27;20046;-87
2021/12/29 05:12:41;;;;;;;53.22;18.70;;;7.50;99.90;;;;;;5103255;28;20069;-87
2021/12/29 05:15:25;;;;;;;48.78;18.38;;;7.40;99.90;;;;;;5133194;28;20466;-87
2021/12/29 05:18:10;;;;;;;38.97;17.15;;;7.50;99.90;;;;;;5133750;28;20073;-87
2021/12/29 05:20:55;;;;;;;57.40;18.40;;;7.50;99.90;;;;;;5118018;28;20577;-88
2021/12/29 05:23:39;;;;;;;47.28;17.38;;;7.70;99.90;;;;;;5117477;28;20042;-88
2021/12/29 05:26:24;;;;;;;48.88;19.17;;;7.50;99.90;;;;;;5117480;28;20533;-87
2021/12/29 05:29:08;;;;;;;;;;;7.50;99.90;;;;;;5103949;28;20074;-87
2021/12/29 05:31:52;;;;;;;54.13;18.02;;;7.50;99.90;;;;;;5133538;28;19966;-87
2021/12/29 05:34:37;;;;;;;56.17;18.55;;;7.50;99.90;;;;;;5117398;28;20089;-87
2021/12/29 05:37:21;;;;;;;41.63;16.55;;;7.80;99.90;;;;;;5133514;28;20082;-87
2021/12/29 05:40:07;;;;;;;46.30;17.15;;;7.50;99.90;;;;;;5105645;27;20074;-87
2021/12/29 05:42:51;;;;;;;45.85;16.77;;;7.50;99.90;;;;;;5154189;27;20383;-88
2021/12/29 05:45:36;;;;;;;50.72;17.23;;;7.50;99.90;;;;;;5153725;27;20034;-87
2021/12/29 05:48:20;;;;;;;43.53;16.70;;;7.50;99.90;;;;;;5154076;27;20087;-87
2021/12/29 05:51:06;;;;;;;47.47;18.10;;;7.50;99.90;;;;;;5124260;27;20558;-88
2021/12/29 05:53:50;;;;;;;48.47;17.23;;;7.50;99.90;;;;;;5159172;27;20056;-87
2021/12/29 05:56:34;;;;;;;40.08;16.60;;;7.50;99.90;;;;;;5145030;27;20046;-87
2021/12/29 05:59:19;;;;;;;49.15;17.05;;;7.60;99.90;;;;;;5131660;27;20037;-87
2021/12/29 06:02:03;;;;;;;51.47;19.27;;;7.50;99.90;;;;;;5144004;27;20527;-87
2021/12/29 06:04:48;;;;;;;45.95;17.45;;;8.20;99.90;;;;;;5160309;27;20069;-87
2021/12/29 06:07:33;;;;;;;53.40;17.60;;;7.60;99.90;;;;;;5160091;27;20045;-87
2021/12/29 06:10:18;;;;;;;53.47;17.15;;;7.50;99.90;;;;;;5157011;27;20037;-87
2021/12/29 06:13:02;;;;;;;41.80;17.00;;;7.50;99.90;;;;;;5157558;27;20046;-87
2021/12/29 06:15:47;;;;;;;50.17;17.60;;;7.50;99.90;;;;;;5157012;27;20038;-88
2021/12/29 06:18:31;;;;;;;;;;;7.50;99.90;;;;;;5157365;27;20042;-87
2021/12/29 06:21:18;;;;;;;48.72;17.15;;;7.50;99.90;;;;;;5157016;27;19956;-88
2021/12/29 06:24:03;;;;;;;54.65;17.83;;;7.50;99.90;;;;;;5156211;27;20038;-88
2021/12/29 06:26:47;;;;;;;58.38;17.48;;;7.50;99.90;;;;;;5141145;27;20091;-88
2021/12/29 06:29:31;;;;;;;58.40;17.23;;;7.50;99.90;;;;;;5157029;27;20073;-86
2021/12/29 06:32:16;;;;;;;58.63;17.95;;;7.50;99.90;;;;;;5155066;27;20122;-87
2021/12/29 06:35:01;;;;;;;53.85;17.92;;;7.60;99.90;;;;;;5154998;27;20494;-88
2021/12/29 06:37:45;;;;;;;57.35;18.35;;;7.80;99.90;;;;;;5151693;27;20398;-88
2021/12/29 06:40:30;;;;;;;72.13;19.10;;;7.60;99.90;;;;;;5155571;27;20458;-88
2021/12/29 06:43:14;;;;;;;;;;;7.50;99.90;;;;;;5139097;27;20453;-87
2021/12/29 06:45:58;;;;;;;78.20;18.23;;;7.50;99.90;;;;;;5156812;27;19977;-87
2021/12/29 06:48:42;;;;;;;;;;;7.50;99.90;;;;;;5156839;27;20042;-88
2021/12/29 06:51:27;;;;;;;78.75;18.35;;;7.40;99.90;;;;;;5157294;27;20397;-86
2021/12/29 06:54:11;;;;;;;105.22;19.05;;;7.80;99.90;;;;;;5127532;27;20069;-87
2021/12/29 06:56:55;;;;;;;;;;;7.50;99.90;;;;;;5153837;27;20045;-87
2021/12/29 06:59:39;;;;;;;76.97;17.75;;;7.40;99.90;;;;;;5155749;27;19975;-87
2021/12/29 07:02:23;;;;;;;64.10;17.95;;;7.50;99.90;;;;;;5155017;27;20071;-87
2021/12/29 07:05:08;;;;;;;60.25;16.15;;;7.40;99.90;;;;;;5139847;27;20037;-86
2021/12/29 07:07:54;;;;;;;75.03;18.55;;;7.80;99.90;;;;;;5152154;27;20061;-87
2021/12/29 07:10:42;;;;;;;60.25;16.35;;;7.40;99.90;;;;;;5134348;27;20054;-86
2021/12/29 07:13:26;;;;;;;64.63;17.42;;;7.40;99.90;;;;;;5135692;27;20386;-87
2021/12/29 07:16:11;;;;;;;55.22;17.20;;;7.40;99.90;;;;;;5135760;27;20233;-87
2021/12/29 07:18:56;;;;;;;89.55;20.48;;;7.40;99.90;;;;;;5105248;27;20038;-87
2021/12/29 07:21:40;;;;;;;;;;;7.40;99.90;;;;;;5119978;27;20092;-86
2021/12/29 07:24:24;;;;;;;73.20;16.00;;;7.40;99.90;;;;;;5135660;27;20010;-86
2021/12/29 07:27:08;;;;;;;;;;;7.50;99.90;;;;;;5143008;27;20126;-90
2021/12/29 07:29:52;;;;;;;53.92;15.48;;;7.40;99.90;;;;;;5129663;27;19918;-85
2021/12/29 07:32:37;;;;;;;55.67;16.13;;;7.40;99.90;;;;;;5154000;27;20033;-86
2021/12/29 07:35:21;;;;;;;59.90;17.15;;;7.40;99.90;;;;;;5140471;27;20041;-84
2021/12/29 07:38:06;;;;;;;55.42;15.68;;;8.00;99.90;;;;;;5138931;27;20045;-86
2021/12/29 07:40:50;;;;;;;48.10;14.82;;;7.50;99.90;;;;;;5130917;27;20034;-87
2021/12/29 07:43:35;;;;;;;;;;;7.50;99.90;;;;;;5135640;27;20122;-87
2021/12/29 07:46:20;;;;;;;46.75;13.65;;;7.50;99.90;;;;;;5119856;27;20474;-87
2021/12/29 07:49:04;;;;;;;51.55;14.63;;;7.50;99.90;;;;;;5118994;27;20126;-86
2021/12/29 07:51:49;;;;;;;50.08;14.50;;;7.50;99.90;;;;;;5134307;27;20058;-86
2021/12/29 07:54:33;;;;;;;68.72;16.52;;;7.50;99.90;;;;;;5119418;27;20041;-86
2021/12/29 07:57:17;;;;;;;;;;;7.50;99.90;;;;;;5142248;27;20038;-86
2021/12/29 08:00:03;;;;;;;71.40;16.73;;;7.50;99.90;;;;;;5134306;27;19959;-87
2021/12/29 08:02:47;;;;;;;86.30;17.50;;;7.50;99.90;;;;;;5134246;27;20069;-87
2021/12/29 08:05:31;;;;;;;81.05;17.52;;;7.50;99.90;;;;;;5134634;27;20088;-87
2021/12/29 08:08:16;;;;;;;76.90;17.15;;;7.60;99.90;;;;;;5119275;27;20464;-87
2021/12/29 08:11:00;;;;;;;;;;;7.50;99.90;;;;;;5136120;27;20069;-87
2021/12/29 08:13:44;;;;;;;92.50;17.13;;;7.50;99.90;;;;;;5151420;27;19975;-87
2021/12/29 08:16:28;;;;;;;;;;;7.50;99.90;;;;;;5135072;27;20127;-87
2021/12/29 08:19:12;;;;;;;102.93;18.77;;;8.10;99.90;;;;;;5134196;27;19919;-86
2021/12/29 08:21:56;;;;;;;;;;;7.50;99.90;;;;;;5134343;27;20083;-87
2021/12/29 08:24:40;;;;;;;96.75;19.25;;;7.80;99.90;;;;;;5134391;27;19958;-86
2021/12/29 08:27:24;;;;;;;;;;;7.50;99.90;;;;;;5119122;27;20518;-87
2021/12/29 08:30:09;;;;;;;127.18;20.35;;;7.50;99.90;;;;;;5146421;27;20131;-86
2021/12/29 08:32:54;;;;;;;99.15;19.10;;;7.50;99.90;;;;;;5154500;27;20045;-87
2021/12/29 08:35:38;;;;;;;108.57;20.17;;;7.50;99.90;;;;;;5154934;27;20037;-87
2021/12/29 08:38:23;;;;;;;108.07;19.83;;;7.40;99.90;;;;;;5139150;27;20083;-86
2021/12/29 08:41:09;;;;;;;111.22;19.92;;;7.50;99.90;;;;;;5154278;27;20041;-87
2021/12/29 08:43:53;;;;;;;110.07;21.05;;;7.60;99.90;;;;;;5138471;27;20099;-87
2021/12/29 08:46:38;;;;;;;109.15;22.67;;;7.60;99.90;;;;;;5154540;27;20087;-86
2021/12/29 08:49:23;;;;;;;97.55;19.73;;;7.60;99.90;;;;;;5139275;27;20524;-87
2021/12/29 08:52:08;;;;;;;117.68;22.85;;;7.60;99.90;;;;;;5138214;27;20061;-86
2021/12/29 08:54:52;;;;;;;107.38;21.25;;;7.60;99.90;;;;;;5150713;27;20042;-86
2021/12/29 08:57:36;;;;;;;116.55;23.33;;;7.60;99.90;;;;;;5118351;27;20399;-86
2021/12/29 09:00:21;;;;;;;107.32;20.80;;;7.70;99.90;;;;;;5133801;27;20042;-86
2021/12/29 09:03:06;;;;;;;132.07;23.52;;;7.70;99.90;;;;;;5133524;27;20407;-87
2021/12/29 09:05:51;;;;;;;119.13;21.48;;;7.60;99.90;;;;;;5118177;28;20084;-87
2021/12/29 09:08:35;;;;;;;98.82;20.20;;;7.70;99.90;;;;;;5133489;27;20043;-86
2021/12/29 09:11:19;;;;;;;153.85;23.15;;;7.70;99.90;;;;;;5117535;28;20084;-87
2021/12/29 09:14:03;;;;;;;150.88;23.77;;;7.80;99.90;;;;;;5135258;27;20038;-87
2021/12/29 09:16:47;;;;;;;;;;;7.70;99.90;;;;;;5153609;27;20179;-86
2021/12/29 09:19:34;;;;;;;124.88;20.83;;;7.70;99.90;;;;;;5135405;27;19918;-87
2021/12/29 09:22:18;;;;;;;142.15;21.70;;;7.70;99.90;;;;;;5153823;27;20099;-86
2021/12/29 09:25:03;;;;;;;119.35;20.38;;;7.70;99.90;;;;;;5132644;27;20080;-86
2021/12/29 09:27:49;;;;;;;117.22;20.30;;;7.70;99.90;;;;;;5133344;28;20050;-86
2021/12/29 09:30:37;;;;;;;123.07;19.83;;;7.90;99.90;;;;;;5139246;27;20130;-84
2021/12/29 09:33:21;;;;;;;126.47;18.60;;;7.70;99.90;;;;;;5154761;27;20400;-84
2021/12/29 09:36:06;;;;;;;136.10;20.48;;;8.20;99.90;;;;;;5139843;27;20042;-86
2021/12/29 09:38:50;;;;;;;141.05;21.52;;;7.70;99.90;;;;;;5137494;27;20088;-86
2021/12/29 09:41:34;;;;;;;172.95;21.02;;;7.70;99.90;;;;;;5129767;27;20045;-85
2021/12/29 09:44:19;;;;;;;148.25;20.02;;;7.80;99.90;;;;;;5141414;27;20041;-86
2021/12/29 09:47:05;;;;;;;99.93;17.05;;;7.80;99.90;;;;;;5138870;27;20042;-85
2021/12/29 09:49:49;;;;;;;77.50;15.57;;;7.80;99.90;;;;;;5142828;27;20131;-86
2021/12/29 09:52:34;;;;;;;56.63;14.40;;;7.80;99.90;;;;;;5142128;27;20103;-86
2021/12/29 09:55:20;;;;;;;48.92;11.73;;;7.80;99.90;;;;;;5155724;27;20505;-85
2021/12/29 09:58:06;;;;;;;32.30;10.18;;;7.80;99.90;;;;;;5141900;27;20077;-85
2021/12/29 10:00:56;;;;;;;29.83;10.40;;;7.90;99.90;;;;;;5157932;27;20551;-85
2021/12/29 10:03:42;;;;;;;30.50;10.15;;;8.30;99.90;;;;;;5157779;27;20034;-86
2021/12/29 10:06:26;;;;;;;28.55;9.90;;;8.30;99.90;;;;;;5157196;27;20042;-86
2021/12/29 10:09:13;;;;;;;29.10;9.73;;;7.90;99.90;;;;;;5157240;27;20041;-87
2021/12/29 10:12:07;;;;;;;24.73;8.32;;;8.00;99.90;;;;;;5157609;27;20130;-86
2021/12/29 10:14:59;;;;;;;24.92;8.63;;;8.00;99.90;;;;;;5146449;27;20034;-85
2021/12/29 10:17:44;;;;;;;26.27;9.02;;;8.30;99.90;;;;;;5137301;27;20514;-85
2021/12/29 10:20:28;;;;;;;;;;;8.10;99.90;;;;;;5136695;27;20091;-86
2021/12/29 10:23:17;;;;;;;24.50;8.43;;;8.10;99.90;;;;;;5125252;27;20397;-84
2021/12/29 10:26:11;;;;;;;22.15;7.95;;;8.10;99.90;;;;;;5140089;27;20114;-86
2021/12/29 10:29:00;;;;;;;;;;;8.10;99.90;;;;;;5156586;27;20034;-85
2021/12/29 10:31:58;;;;;;;21.70;8.15;;;8.10;99.90;;;;;;5155102;27;19933;-84
2021/12/29 10:34:51;;;;;;;23.38;8.85;;;8.10;99.90;;;;;;5156533;27;20079;-85
2021/12/29 10:37:35;;;;;;;23.63;8.57;;;8.10;99.90;;;;;;5157078;27;20440;-85
2021/12/29 10:40:31;;;;;;;23.27;9.07;;;8.20;99.90;;;;;;5141013;27;20089;-85
2021/12/29 10:43:17;;;;;;;27.70;8.77;;;8.30;99.90;;;;;;5155432;27;20034;-85
2021/12/29 10:46:01;;;;;;;32.42;10.23;;;8.20;99.90;;;;;;5156993;27;20042;-85
2021/12/29 10:48:50;;;;;;;22.05;9.75;;;8.30;99.90;;;;;;5126430;27;20457;-86
2021/12/29 10:51:38;;;;;;;17.40;8.65;;;8.30;99.90;;;;;;5140909;27;20054;-86
2021/12/29 10:54:26;;;;;;;20.63;8.65;;;8.30;99.90;;;;;;5140711;27;20095;-85
2021/12/29 10:57:15;;;;;;;21.25;9.77;;;8.30;99.90;;;;;;5148268;27;20087;-81
2021/12/29 11:00:00;;;;;;;20.88;9.52;;;8.30;99.90;;;;;;5141840;27;20083;-85
2021/12/29 11:02:46;;;;;;;18.85;8.95;;;8.30;99.90;;;;;;5141041;27;20062;-85
2021/12/29 11:05:39;;;;;;;29.25;10.57;;;8.20;99.90;;;;;;5140152;27;20106;-85
2021/12/29 11:08:23;;;;;;;28.80;9.80;;;8.30;99.90;;;;;;5135071;27;20557;-85
2021/12/29 11:11:07;;;;;;;27.67;9.75;;;8.20;99.90;;;;;;5140828;27;20422;-85
2021/12/29 11:13:56;;;;;;;29.85;10.45;;;8.20;99.90;;;;;;5126265;27;20041;-86
2021/12/29 11:16:43;;;;;;;24.27;9.85;;;8.20;99.90;;;;;;5113090;27;20539;-85
2021/12/29 11:19:27;;;;;;;24.17;8.43;;;8.20;99.90;;;;;;5155833;27;20046;-85
2021/12/29 11:22:14;;;;;;;24.65;9.73;;;8.80;99.90;;;;;;5140630;27;20057;-85
2021/12/29 11:25:03;;;;;;;25.85;8.85;;;8.20;99.90;;;;;;5153200;27;20418;-85
2021/12/29 11:27:47;;;;;;;22.75;8.38;;;8.20;99.90;;;;;;5135265;27;20045;-84
2021/12/29 11:30:32;;;;;;;31.50;10.20;;;8.20;99.90;;;;;;5150712;27;20087;-85
2021/12/29 11:33:17;;;;;;;22.00;8.85;;;8.30;99.90;;;;;;5156023;27;20033;-86
2021/12/29 11:36:03;;;;;;;24.33;8.88;;;8.30;99.90;;;;;;5140308;27;20073;-85
2021/12/29 11:38:47;;;;;;;30.23;9.45;;;8.30;99.90;;;;;;5155877;27;20029;-84
2021/12/29 11:41:32;;;;;;;31.40;8.80;;;8.30;99.90;;;;;;5155516;27;20033;-85
2021/12/29 11:44:17;;;;;;;25.08;8.13;;;8.40;99.90;;;;;;5155845;27;20042;-85
2021/12/29 11:47:02;;;;;;;22.60;9.20;;;8.60;99.90;;;;;;5155663;27;20041;-85
2021/12/29 11:49:46;;;;;;;22.67;8.20;;;8.70;99.90;;;;;;5155661;27;20042;-85
2021/12/29 11:52:52;;;;;;;25.77;8.18;;;8.50;99.90;;;;;;5152872;27;20054;-85
2021/12/29 11:55:46;;;;;;;24.25;9.77;;;8.50;99.90;;;;;;5134367;27;20119;-85
2021/12/29 11:58:41;;;;;;;20.42;7.65;;;8.60;99.90;;;;;;5134504;27;20092;-86
2021/12/29 12:01:25;;;;;;;28.65;8.45;;;8.60;99.90;;;;;;5134321;27;20394;-86
2021/12/29 12:04:11;;;;;;;31.42;8.75;;;8.60;99.90;;;;;;5134661;27;20513;-85
2021/12/29 12:07:04;;;;;;;26.65;7.90;;;8.60;99.90;;;;;;5142431;27;20033;-84
2021/12/29 12:09:50;;;;;;;25.88;8.70;;;8.60;99.90;;;;;;5155110;27;20038;-85
2021/12/29 12:12:37;;;;;;;27.17;7.10;;;8.70;99.90;;;;;;5154773;27;20069;-85
2021/12/29 12:15:32;;;;;;;22.90;7.20;;;9.00;99.90;;;;;;5155057;27;20394;-84
2021/12/29 12:18:17;;;;;;;21.83;7.00;;;8.70;99.90;;;;;;5155235;27;20037;-85
2021/12/29 12:21:01;;;;;;;21.80;6.30;;;8.60;99.90;;;;;;5139461;27;20038;-85
2021/12/29 12:23:45;;;;;;;;;;;8.60;99.90;;;;;;5128390;27;20095;-85
2021/12/29 12:26:29;;;;;;;23.83;5.47;;;8.60;99.90;;;;;;5118564;27;19918;-85
2021/12/29 12:29:14;;;;;;;;;;;8.50;99.90;;;;;;5139884;27;20061;-85
2021/12/29 12:32:14;;;;;;;19.73;5.45;;;8.50;99.90;;;;;;5138643;27;19956;-85
2021/12/29 12:35:07;;;;;;;15.93;5.28;;;8.40;99.90;;;;;;5138882;27;20501;-85
2021/12/29 12:37:51;;;;;;;25.35;7.13;;;8.50;99.90;;;;;;5154863;27;20041;-85
2021/12/29 12:40:36;;;;;;;14.52;5.13;;;8.40;99.90;;;;;;5124192;27;20057;-85
2021/12/29 12:43:21;;;;;;;11.68;5.07;;;8.40;99.90;;;;;;5139118;27;20042;-85
2021/12/29 12:46:05;;;;;;;;;;;8.40;99.90;;;;;;5155057;27;20095;-86
2021/12/29 12:48:51;;;;;;;13.63;4.90;;;8.40;99.90;;;;;;5154228;27;19922;-85
2021/12/29 12:51:35;;;;;;;12.38;5.32;;;8.30;99.90;;;;;;5132318;27;20062;-86
2021/12/29 12:54:20;;;;;;;;;;;8.50;99.90;;;;;;5133692;27;20088;-86
2021/12/29 12:57:05;;;;;;;16.20;5.43;;;8.30;99.90;;;;;;5133753;27;20010;-86
2021/12/29 12:59:49;;;;;;;;;;;8.30;99.90;;;;;;5133792;27;20042;-86
2021/12/29 13:02:39;;;;;;;20.88;5.47;;;8.30;99.90;;;;;;5133353;27;19918;-85
2021/12/29 13:05:27;;;;;;;15.30;5.50;;;8.20;99.90;;;;;;5133006;27;20091;-85
2021/12/29 13:08:15;;;;;;;16.75;5.80;;;8.30;99.90;;;;;;5132797;27;20037;-86
2021/12/29 13:11:05;;;;;;;21.67;6.90;;;8.30;99.90;;;;;;5133832;28;20387;-86
2021/12/29 13:13:52;;;;;;;23.42;6.70;;;8.20;99.90;;;;;;5132207;28;20539;-86
2021/12/29 13:16:37;;;;;;;18.52;6.10;;;8.60;99.90;;;;;;5132173;28;20054;-85
2021/12/29 13:19:25;;;;;;;16.80;6.40;;;8.30;99.90;;;;;;5132698;28;20033;-86
2021/12/29 13:22:09;;;;;;;20.10;6.95;;;8.30;99.90;;;;;;5133444;28;20097;-85
2021/12/29 13:24:54;;;;;;;21.40;7.82;;;8.30;99.90;;;;;;5131204;28;20043;-86
2021/12/29 13:27:40;;;;;;;20.33;6.63;;;8.30;99.90;;;;;;5132048;28;20110;-86
2021/12/29 13:30:24;;;;;;;22.67;6.47;;;8.30;99.90;;;;;;5118607;28;20109;-85
2021/12/29 13:33:08;;;;;;;;;;;8.30;99.90;;;;;;5113276;28;20060;-85
2021/12/29 13:35:56;;;;;;;15.00;6.43;;;8.30;99.90;;;;;;5116935;28;19923;-85
2021/12/29 13:38:41;;;;;;;27.88;8.15;;;8.30;99.90;;;;;;5129442;28;20110;-86
2021/12/29 13:41:36;;;;;;;23.65;7.25;;;8.30;99.90;;;;;;5118002;28;20096;-86
2021/12/29 13:44:22;;;;;;;20.88;7.82;;;8.20;99.90;;;;;;5132418;28;20141;-86
2021/12/29 13:47:06;;;;;;;19.40;7.82;;;8.30;99.90;;;;;;5132386;28;20046;-86
2021/12/29 13:49:50;;;;;;;;;;;8.20;99.90;;;;;;5133410;28;20099;-85
2021/12/29 13:52:35;;;;;;;23.38;8.35;;;8.50;99.90;;;;;;5132187;28;19930;-85
2021/12/29 13:55:35;;;;;;;23.08;9.07;;;8.20;99.90;;;;;;5133271;28;20135;-85
2021/12/29 13:58:20;;;;;;;33.58;9.27;;;8.20;99.90;;;;;;5131405;28;20092;-86
2021/12/29 14:01:05;;;;;;;18.38;8.63;;;8.20;99.90;;;;;;5133129;28;20517;-86
2021/12/29 14:03:49;;;;;;;28.92;9.07;;;8.20;99.90;;;;;;5132577;28;20395;-86
2021/12/29 14:06:33;;;;;;;;;;;8.70;99.90;;;;;;5133487;28;20489;-85
2021/12/29 14:09:18;;;;;;;23.55;8.55;;;8.20;99.90;;;;;;5133165;28;19924;-85
2021/12/29 14:12:15;;;;;;;29.90;9.60;;;8.20;99.90;;;;;;5131566;28;20042;-85
2021/12/29 14:15:03;;;;;;;25.40;10.10;;;8.20;99.90;;;;;;5130443;28;20038;-85
2021/12/29 14:17:52;;;;;;;28.83;9.60;;;8.10;99.90;;;;;;5115530;28;20039;-86
2021/12/29 14:20:37;;;;;;;23.80;9.68;;;8.10;99.90;;;;;;5116176;28;20035;-85
2021/12/29 14:23:30;;;;;;;31.23;11.32;;;8.10;99.90;;;;;;5115101;28;20089;-86
2021/12/29 14:26:14;;;;;;;26.83;10.15;;;8.10;99.90;;;;;;5115980;28;20104;-86
2021/12/29 14:29:00;;;;;;;30.88;10.73;;;8.10;99.90;;;;;;5118084;27;20180;-85
2021/12/29 14:31:50;;;;;;;29.63;11.57;;;8.10;99.90;;;;;;5136075;27;20052;-85
2021/12/29 14:34:54;;;;;;;26.17;11.30;;;8.10;99.90;;;;;;5136690;27;20509;-85